createdAt,value
2023-05-23T00:00:00.137Z,15.40
2023-05-23T00:02:28.963Z,16.80
2023-05-23T00:04:58.503Z,15.20
2023-05-23T00:07:26.305Z,16.00
2023-05-23T00:09:52.980Z,17.50
2023-05-23T00:12:19.727Z,16.70
2023-05-23T00:14:46.384Z,17.80
2023-05-23T00:17:13.136Z,17.70
2023-05-23T00:19:39.841Z,18.00
2023-05-23T00:22:06.629Z,17.60
2023-05-23T00:24:33.293Z,16.50
2023-05-23T00:27:00.043Z,17.30
2023-05-23T00:29:26.675Z,16.00
2023-05-23T00:31:53.382Z,17.00
2023-05-23T00:34:20.178Z,17.10
2023-05-23T00:36:50.448Z,16.60
2023-05-23T00:39:20.494Z,17.50
2023-05-23T00:41:51.367Z,17.40
2023-05-23T00:44:20.323Z,17.70
2023-05-23T00:46:48.835Z,16.50
2023-05-23T00:49:15.774Z,17.70
2023-05-23T00:51:43.256Z,17.50
2023-05-23T00:54:10.056Z,17.80
2023-05-23T00:56:36.844Z,17.30
2023-05-23T00:59:03.688Z,17.20
2023-05-23T01:06:25.262Z,15.60
2023-05-23T01:08:52.010Z,16.30
2023-05-23T01:11:48.196Z,17.00
2023-05-23T01:14:29.878Z,15.60
2023-05-23T01:16:58.588Z,16.20
2023-05-23T01:19:48.814Z,15.80
2023-05-23T01:22:21.220Z,15.80
2023-05-23T01:24:54.788Z,15.60
2023-05-23T01:27:59.913Z,16.40
2023-05-23T01:30:27.725Z,15.90
2023-05-23T01:32:56.490Z,15.90
2023-05-23T01:35:29.544Z,16.00
2023-05-23T01:37:56.285Z,16.10
2023-05-23T01:40:23.687Z,16.40
2023-05-23T01:42:50.968Z,16.80
2023-05-23T01:45:17.804Z,17.30
2023-05-23T01:47:44.875Z,16.80
2023-05-23T01:50:12.133Z,16.10
2023-05-23T01:52:40.105Z,16.00
2023-05-23T01:55:09.982Z,17.20
2023-05-23T01:57:38.144Z,15.90
2023-05-23T02:00:06.652Z,16.30
2023-05-23T02:02:34.057Z,15.80
2023-05-23T02:05:00.801Z,16.30
2023-05-23T02:07:27.658Z,17.20
2023-05-23T02:09:55.003Z,15.90
2023-05-23T02:12:21.668Z,17.10
2023-05-23T02:14:49.134Z,15.80
2023-05-23T02:17:16.939Z,15.70
2023-05-23T02:19:43.819Z,17.30
2023-05-23T02:22:10.544Z,17.00
2023-05-23T02:24:37.235Z,16.80
2023-05-23T02:27:04.044Z,17.00
2023-05-23T02:29:30.746Z,15.80
2023-05-23T02:31:57.379Z,16.40
2023-05-23T02:34:24.080Z,16.20
2023-05-23T02:36:51.582Z,15.60
2023-05-23T02:39:18.413Z,16.90
2023-05-23T02:41:45.037Z,16.50
2023-05-23T02:44:11.704Z,16.10
2023-05-23T02:46:38.485Z,16.50
2023-05-23T02:49:05.171Z,17.00
2023-05-23T02:51:32.409Z,14.60
2023-05-23T02:53:59.068Z,15.70
2023-05-23T02:56:27.002Z,16.40
2023-05-23T02:58:53.764Z,15.20
2023-05-23T03:01:20.717Z,16.60
2023-05-23T03:03:47.465Z,16.90
2023-05-23T03:06:14.831Z,16.40
2023-05-23T03:08:41.937Z,16.50
2023-05-23T03:11:08.829Z,15.50
2023-05-23T03:13:36.108Z,16.60
2023-05-23T03:16:02.955Z,16.90
2023-05-23T03:18:29.918Z,16.90
2023-05-23T03:20:56.799Z,15.60
2023-05-23T03:23:23.675Z,15.60
2023-05-23T03:25:50.526Z,15.60
2023-05-23T03:28:17.308Z,16.50
2023-05-23T03:30:44.184Z,15.90
2023-05-23T03:33:11.399Z,15.10
2023-05-23T03:35:38.363Z,15.90
2023-05-23T03:38:05.663Z,16.50
2023-05-23T03:40:32.551Z,16.30
2023-05-23T03:43:06.045Z,15.30
2023-05-23T03:45:33.330Z,15.40
2023-05-23T03:50:28.085Z,15.20
2023-05-23T03:52:55.056Z,16.00
2023-05-23T03:55:22.727Z,14.50
2023-05-23T03:57:49.748Z,16.70
2023-05-23T04:00:16.882Z,16.30
2023-05-23T04:02:44.076Z,15.20
2023-05-23T04:05:11.061Z,15.00
2023-05-23T04:07:38.637Z,14.70
2023-05-23T04:10:05.885Z,16.30
2023-05-23T04:12:32.696Z,15.30
2023-05-23T04:14:59.477Z,14.60
2023-05-23T04:17:30.879Z,15.70
2023-05-23T04:19:58.111Z,17.10
2023-05-23T04:22:24.798Z,16.30
2023-05-23T04:24:51.740Z,14.80
2023-05-23T04:27:18.394Z,14.90
2023-05-23T04:29:46.816Z,16.90
2023-05-23T04:32:14.757Z,14.90
2023-05-23T04:34:41.412Z,17.40
2023-05-23T04:37:09.269Z,15.50
2023-05-23T04:39:36.204Z,15.00
2023-05-23T04:42:02.864Z,17.20
2023-05-23T04:44:30.318Z,15.70
2023-05-23T04:46:57.281Z,16.90
2023-05-23T04:49:24.066Z,17.40
2023-05-23T04:51:51.231Z,17.60
2023-05-23T04:54:17.947Z,17.40
2023-05-23T04:56:44.918Z,17.00
2023-05-23T04:59:11.674Z,17.60
2023-05-23T05:01:41.504Z,16.60
2023-05-23T05:04:08.227Z,16.00
2023-05-23T05:06:34.916Z,15.20
2023-05-23T05:09:01.539Z,17.70
2023-05-23T05:11:28.638Z,16.80
2023-05-23T05:13:55.409Z,17.60
2023-05-23T05:16:22.521Z,17.40
2023-05-23T05:18:49.262Z,17.40
2023-05-23T05:21:15.930Z,17.80
2023-05-23T05:23:43.645Z,17.10
2023-05-23T05:26:10.520Z,17.50
2023-05-23T05:28:38.254Z,18.00
2023-05-23T05:31:05.418Z,18.00
2023-05-23T05:33:36.017Z,16.70
2023-05-23T05:36:03.898Z,17.60
2023-05-23T05:38:30.698Z,17.10
2023-05-23T05:40:57.461Z,19.00
2023-05-23T05:43:24.248Z,19.50
2023-05-23T05:45:50.924Z,19.30
2023-05-23T05:48:17.730Z,17.30
2023-05-23T05:53:12.693Z,17.70
2023-05-23T05:55:39.405Z,19.60
2023-05-23T05:58:06.158Z,19.30
2023-05-23T06:00:32.841Z,18.10
2023-05-23T06:02:59.542Z,19.30
2023-05-23T06:05:26.890Z,18.40
2023-05-23T06:17:44.786Z,18.90
2023-05-23T06:20:11.946Z,20.50
2023-05-23T06:22:38.771Z,18.70
2023-05-23T06:25:06.413Z,18.90
2023-05-23T06:27:33.013Z,18.60
2023-05-23T06:29:59.681Z,20.30
2023-05-23T06:32:26.431Z,20.10
2023-05-23T06:34:53.064Z,20.60
2023-05-23T06:37:19.672Z,19.80
2023-05-23T06:39:46.304Z,19.00
2023-05-23T06:42:12.938Z,20.10
2023-05-23T06:44:39.700Z,20.20
2023-05-23T06:47:06.497Z,18.90
2023-05-23T06:49:33.158Z,18.90
2023-05-23T06:51:59.817Z,19.90
2023-05-23T06:54:26.566Z,20.40
2023-05-23T06:56:53.302Z,19.70
2023-05-23T06:59:19.986Z,20.00
2023-05-23T07:01:46.828Z,19.10
2023-05-23T07:06:41.011Z,18.90
2023-05-23T07:09:07.661Z,19.10
2023-05-23T07:11:35.580Z,19.10
2023-05-23T07:14:02.254Z,19.20
2023-05-23T07:18:56.033Z,19.30
2023-05-23T07:21:22.629Z,19.20
2023-05-23T07:23:49.643Z,19.20
2023-05-23T07:26:16.254Z,19.20
2023-05-23T07:28:42.856Z,19.30
2023-05-23T07:31:09.949Z,19.10
2023-05-23T07:33:36.602Z,18.80
2023-05-23T07:36:03.331Z,19.30
2023-05-23T07:38:29.954Z,19.50
2023-05-23T07:41:10.083Z,19.90
2023-05-23T07:43:38.443Z,20.50
2023-05-23T07:46:05.174Z,19.50
2023-05-23T07:48:32.219Z,19.60
2023-05-23T07:50:59.028Z,20.40
2023-05-23T07:53:26.177Z,20.10
2023-05-23T07:55:53.052Z,19.60
2023-05-23T07:58:19.695Z,20.10
2023-05-23T08:00:46.404Z,20.20
2023-05-23T08:03:13.454Z,20.00
2023-05-23T08:05:40.303Z,20.40
2023-05-23T08:08:06.971Z,20.00
2023-05-23T08:10:33.609Z,20.40
2023-05-23T08:13:01.002Z,20.60
2023-05-23T08:15:28.839Z,19.20
2023-05-23T08:17:57.233Z,19.80
2023-05-23T08:20:30.890Z,19.90
2023-05-23T08:22:58.454Z,19.50
2023-05-23T08:25:26.221Z,20.50
2023-05-23T08:27:53.478Z,20.60
2023-05-23T08:30:23.114Z,21.00
2023-05-23T08:32:49.796Z,19.80
2023-05-23T08:35:16.434Z,20.50
2023-05-23T08:37:43.102Z,20.00
2023-05-23T08:40:13.738Z,19.70
2023-05-23T08:42:40.504Z,19.60
2023-05-23T08:45:09.443Z,21.50
2023-05-23T08:47:41.853Z,20.00
2023-05-23T08:50:09.106Z,20.30
2023-05-23T08:52:37.836Z,20.00
2023-05-23T08:55:06.087Z,20.10
2023-05-23T08:57:33.125Z,19.20
2023-05-23T09:00:00.469Z,19.10
2023-05-23T09:02:27.208Z,19.30
2023-05-23T09:04:53.838Z,19.80
2023-05-23T09:07:20.450Z,18.90
2023-05-23T09:09:49.431Z,20.20
2023-05-23T09:12:17.911Z,20.10
2023-05-23T09:14:46.086Z,19.80
2023-05-23T09:17:15.885Z,19.60
2023-05-23T09:19:43.196Z,18.80
2023-05-23T09:22:09.816Z,19.50
2023-05-23T09:24:37.319Z,20.10
2023-05-23T09:27:07.542Z,21.30
2023-05-23T09:29:40.553Z,19.60
2023-05-23T09:32:10.776Z,19.80
2023-05-23T09:34:40.301Z,20.10
2023-05-23T09:37:07.254Z,20.40
2023-05-23T09:39:37.402Z,20.10
2023-05-23T09:42:04.266Z,20.60
2023-05-23T09:44:30.852Z,19.40
2023-05-23T09:46:57.544Z,19.20
2023-05-23T09:49:26.595Z,19.40
2023-05-23T09:51:59.966Z,19.40
2023-05-23T09:54:26.959Z,19.40
2023-05-23T09:56:56.132Z,19.80
2023-05-23T09:59:24.276Z,20.30
2023-05-23T10:01:51.706Z,20.10
2023-05-23T10:04:21.485Z,20.20
2023-05-23T10:06:50.160Z,20.40
2023-05-23T10:09:18.755Z,21.70
2023-05-23T10:12:08.415Z,21.10
2023-05-23T10:14:38.441Z,20.60
2023-05-23T10:17:11.869Z,20.20
2023-05-23T10:22:07.103Z,21.30
2023-05-23T10:24:34.264Z,21.10
2023-05-23T10:27:01.446Z,21.60
2023-05-23T10:29:29.114Z,21.30
2023-05-23T10:31:57.071Z,20.80
2023-05-23T10:34:28.184Z,22.70
2023-05-23T10:37:03.011Z,21.20
2023-05-23T10:39:48.288Z,21.40
2023-05-23T10:42:22.648Z,21.20
2023-05-23T10:44:50.508Z,21.30
2023-05-23T10:49:45.587Z,21.60
2023-05-23T10:52:16.791Z,21.40
2023-05-23T10:54:47.801Z,20.50
2023-05-23T10:57:18.922Z,20.20
2023-05-23T10:59:47.082Z,20.00
2023-05-23T11:02:15.877Z,19.30
2023-05-23T11:04:42.993Z,20.80
2023-05-23T11:07:28.903Z,20.30
2023-05-23T11:10:05.035Z,21.00
2023-05-23T11:12:42.245Z,20.90
2023-05-23T11:15:18.045Z,20.70
2023-05-23T11:17:50.871Z,20.20
2023-05-23T11:20:23.109Z,20.00
2023-05-23T11:23:03.634Z,19.80
2023-05-23T11:25:43.464Z,19.70
2023-05-23T11:28:10.908Z,19.70
2023-05-23T11:30:40.821Z,19.30
2023-05-23T11:33:09.381Z,18.90
2023-05-23T11:35:37.116Z,19.00
2023-05-23T11:47:53.584Z,19.20
2023-05-23T11:50:24.528Z,20.30
2023-05-23T11:52:51.945Z,21.20
2023-05-23T11:55:21.988Z,21.00
2023-05-23T11:57:48.985Z,21.20
2023-05-23T12:00:16.121Z,20.90
2023-05-23T12:02:43.433Z,19.90
2023-05-23T12:05:11.411Z,20.20
2023-05-23T12:07:42.067Z,20.10
2023-05-23T12:10:11.938Z,20.40
2023-05-23T12:12:38.624Z,20.00
2023-05-23T12:15:05.478Z,22.30
2023-05-23T12:17:33.081Z,19.70
2023-05-23T12:20:00.314Z,21.40
2023-05-23T12:22:28.052Z,20.70
2023-05-23T12:24:58.536Z,21.60
2023-05-23T12:27:31.632Z,21.30
2023-05-23T12:37:22.042Z,18.20
2023-05-23T12:42:16.240Z,18.10
2023-05-23T12:49:56.094Z,19.50
2023-05-23T12:52:23.099Z,18.50
2023-05-23T12:54:49.697Z,18.50
2023-05-23T12:57:16.433Z,19.10
2023-05-23T12:59:43.174Z,18.40
2023-05-23T13:02:09.932Z,18.50
2023-05-23T13:04:36.557Z,19.00
2023-05-23T13:07:03.173Z,18.70
2023-05-23T13:09:29.761Z,19.60
2023-05-23T13:11:56.932Z,19.20
2023-05-23T13:19:18.111Z,19.30
2023-05-23T13:21:46.675Z,19.10
2023-05-23T13:24:15.433Z,18.60
2023-05-23T13:26:42.051Z,20.80
2023-05-23T13:29:08.722Z,20.30
2023-05-23T13:31:35.486Z,20.00
2023-05-23T13:34:02.171Z,19.10
2023-05-23T13:36:29.434Z,18.80
2023-05-23T13:38:56.222Z,19.40
2023-05-23T13:41:23.346Z,18.50
2023-05-23T13:43:49.951Z,20.40
2023-05-23T13:46:16.574Z,18.50
2023-05-23T13:48:43.738Z,18.00
2023-05-23T13:51:10.719Z,18.50
2023-05-23T13:53:37.643Z,18.20
2023-05-23T13:56:04.382Z,19.80
2023-05-23T13:58:32.815Z,18.60
2023-05-23T14:03:27.308Z,18.20
2023-05-23T14:10:51.468Z,18.40
2023-05-23T14:13:18.261Z,18.20
2023-05-23T14:15:44.926Z,18.80
2023-05-23T14:18:11.649Z,18.90
2023-05-23T14:20:38.383Z,19.30
2023-05-23T14:23:05.093Z,18.00
2023-05-23T14:25:32.219Z,19.80
2023-05-23T14:27:58.875Z,18.10
2023-05-23T14:30:25.595Z,18.20
2023-05-23T14:32:52.362Z,17.80
2023-05-23T14:35:19.389Z,17.10
2023-05-23T14:37:46.842Z,19.50
2023-05-23T14:40:14.292Z,19.20
2023-05-23T14:42:40.968Z,17.70
2023-05-23T14:45:07.944Z,18.40
2023-05-23T14:50:02.521Z,17.10
2023-05-23T15:02:18.802Z,17.80
2023-05-23T15:07:14.818Z,18.20
2023-05-23T15:09:41.500Z,17.40
2023-05-23T15:14:36.483Z,18.20
2023-05-23T15:17:07.873Z,17.40
2023-05-23T15:22:02.712Z,18.80
2023-05-23T15:24:29.538Z,19.50
2023-05-23T15:27:02.239Z,19.70
2023-05-23T15:29:39.670Z,19.40
2023-05-23T15:32:08.622Z,19.40
2023-05-23T15:34:36.124Z,19.80
2023-05-23T15:37:02.749Z,18.80
2023-05-23T15:39:29.349Z,19.60
2023-05-23T15:41:55.946Z,18.90
2023-05-23T15:44:22.700Z,18.80
2023-05-23T15:46:50.658Z,18.90
2023-05-23T15:49:26.007Z,18.50
2023-05-23T15:51:54.208Z,18.30
2023-05-23T15:54:21.019Z,18.40
2023-05-23T15:56:47.628Z,18.40
2023-05-23T15:59:14.262Z,18.20
2023-05-23T16:01:42.254Z,20.00
2023-05-23T16:04:08.941Z,20.60
2023-05-23T16:06:36.691Z,19.00
2023-05-23T16:09:03.605Z,19.00
2023-05-23T16:11:30.278Z,18.70
2023-05-23T16:13:56.905Z,18.50
2023-05-23T16:18:50.704Z,18.00
2023-05-23T16:21:20.561Z,17.90
2023-05-23T16:23:48.480Z,17.60
2023-05-23T16:26:16.243Z,17.50
2023-05-23T16:28:43.609Z,17.30
2023-05-23T16:33:37.666Z,16.80
2023-05-23T16:36:04.351Z,16.60
2023-05-23T16:38:31.059Z,16.70
2023-05-23T16:40:57.709Z,18.70
2023-05-23T16:43:24.642Z,16.40
2023-05-23T16:45:51.280Z,16.80
2023-05-23T16:48:18.616Z,18.30
2023-05-23T16:50:45.394Z,16.10
2023-05-23T16:53:12.171Z,16.20
2023-05-23T16:55:39.149Z,16.30
2023-05-23T16:58:05.962Z,17.90
2023-05-23T17:00:32.614Z,16.10
2023-05-23T17:02:59.364Z,16.20
2023-05-23T17:05:26.157Z,15.80
2023-05-23T17:07:52.765Z,15.60
2023-05-23T17:12:47.113Z,16.00
2023-05-23T17:15:13.757Z,15.40
2023-05-23T17:17:41.019Z,15.40
2023-05-23T17:20:11.544Z,15.50
2023-05-23T17:22:38.247Z,16.20
2023-05-23T17:25:05.908Z,15.60
2023-05-23T17:27:32.922Z,16.30
2023-05-23T17:29:59.965Z,18.00
2023-05-23T17:32:27.900Z,17.90
2023-05-23T17:37:21.676Z,15.50
2023-05-23T17:39:50.809Z,15.00
2023-05-23T17:42:17.988Z,15.30
2023-05-23T17:44:44.624Z,15.30
2023-05-23T17:47:11.255Z,15.20
2023-05-23T17:49:38.809Z,15.30
2023-05-23T17:52:06.852Z,15.20
2023-05-23T17:54:33.494Z,15.20
2023-05-23T17:57:00.081Z,15.40
2023-05-23T17:59:27.987Z,15.40
2023-05-23T18:01:54.616Z,15.10
2023-05-23T18:04:22.168Z,15.20
2023-05-23T18:06:48.794Z,15.30
2023-05-23T18:09:15.418Z,15.30
2023-05-23T18:14:09.940Z,15.20
2023-05-23T18:16:36.696Z,15.20
2023-05-23T18:19:03.388Z,15.20
2023-05-23T18:21:30.069Z,15.20
2023-05-23T18:24:00.119Z,15.00
2023-05-23T18:26:27.411Z,15.10
2023-05-23T18:28:55.338Z,15.00
2023-05-23T18:31:22.197Z,15.10
2023-05-23T18:33:48.834Z,14.90
2023-05-23T18:36:15.567Z,14.90
2023-05-23T18:38:42.232Z,15.60
2023-05-23T18:41:13.158Z,14.70
2023-05-23T18:43:41.306Z,16.40
2023-05-23T18:46:07.988Z,13.30
2023-05-23T18:48:35.878Z,14.40
2023-05-23T18:51:02.835Z,14.60
2023-05-23T18:53:29.564Z,15.50
2023-05-23T18:55:56.281Z,14.50
2023-05-23T18:58:22.988Z,14.50
2023-05-23T19:00:49.885Z,14.20
2023-05-23T19:03:17.010Z,15.00
2023-05-23T19:05:43.865Z,14.30
2023-05-23T19:08:10.647Z,14.30
2023-05-23T19:10:37.272Z,13.80
2023-05-23T19:13:04.010Z,14.00
2023-05-23T19:15:30.648Z,14.10
2023-05-23T19:17:57.350Z,14.10
2023-05-23T19:20:23.955Z,13.50
2023-05-23T19:25:19.524Z,13.70
2023-05-23T19:27:46.230Z,13.60
2023-05-23T19:30:12.885Z,13.80
2023-05-23T19:32:39.714Z,13.90
2023-05-23T19:35:06.541Z,13.90
2023-05-23T19:37:33.419Z,13.50
2023-05-23T19:40:00.712Z,13.50
2023-05-23T19:42:27.469Z,13.40
2023-05-23T19:44:54.676Z,13.50
2023-05-23T19:47:21.336Z,13.50
2023-05-23T19:49:47.929Z,13.60
2023-05-23T19:52:14.549Z,13.40
2023-05-23T19:54:41.222Z,13.40
2023-05-23T19:57:07.840Z,13.40
2023-05-23T19:59:34.526Z,13.50
2023-05-23T20:02:01.316Z,13.60
2023-05-23T20:04:28.498Z,13.20
2023-05-23T20:06:56.047Z,13.30
2023-05-23T20:09:23.077Z,13.00
2023-05-23T20:11:50.023Z,12.70
2023-05-23T20:14:16.647Z,13.00
2023-05-23T20:16:43.322Z,12.70
2023-05-23T20:21:37.422Z,13.20
2023-05-23T20:24:04.105Z,13.00
2023-05-23T22:12:07.464Z,11.50
2023-05-23T22:14:34.194Z,11.50
2023-05-23T22:17:02.309Z,11.00
2023-05-23T22:19:30.380Z,11.10
2023-05-23T22:21:57.079Z,10.80
2023-05-23T22:24:23.948Z,10.70
2023-05-23T22:26:50.776Z,10.50
2023-05-23T22:31:44.542Z,10.40
2023-05-23T22:34:11.175Z,9.90
2023-05-23T22:36:39.040Z,10.00
2023-05-23T22:39:06.083Z,9.80
2023-05-23T22:41:33.263Z,10.10
2023-05-23T22:43:59.985Z,10.10
2023-05-23T22:46:26.718Z,10.30
2023-05-23T22:48:55.133Z,10.30
2023-05-23T22:51:22.260Z,10.40
2023-05-23T22:53:49.009Z,10.00
2023-05-23T22:56:15.758Z,9.90
2023-05-23T22:58:42.422Z,10.30
2023-05-23T23:01:09.273Z,10.00
2023-05-23T23:03:35.958Z,9.60
2023-05-23T23:06:07.676Z,9.50
2023-05-23T23:08:34.464Z,9.00
2023-05-23T23:11:01.138Z,8.70
2023-05-23T23:13:27.802Z,9.10
2023-05-23T23:28:11.716Z,8.80
2023-05-23T23:30:38.352Z,8.80
2023-05-23T23:33:05.047Z,8.60
2023-05-23T23:35:31.670Z,8.60
2023-05-23T23:37:58.296Z,8.60
2023-05-23T23:40:24.920Z,8.60
2023-05-23T23:42:51.525Z,8.80
2023-05-23T23:45:18.273Z,8.60
2023-05-23T23:47:46.178Z,8.50
2023-05-23T23:50:15.802Z,8.50
2023-05-23T23:52:42.414Z,8.60
2023-05-23T23:55:09.177Z,8.80
2023-05-23T23:57:36.025Z,8.90
